createdAt,value
2023-02-08T00:00:55.787Z,-3.41
2023-02-08T00:01:55.766Z,-3.38
2023-02-08T00:02:55.860Z,-3.38
2023-02-08T00:03:55.863Z,-3.38
2023-02-08T00:04:55.728Z,-3.40
2023-02-08T00:05:55.721Z,-3.41
2023-02-08T00:06:55.718Z,-3.41
2023-02-08T00:07:55.706Z,-3.38
2023-02-08T00:08:58.737Z,-3.38
2023-02-08T00:09:58.694Z,-3.34
2023-02-08T00:10:55.659Z,-3.35
2023-02-08T00:11:55.641Z,-3.35
2023-02-08T00:12:55.631Z,-3.37
2023-02-08T00:13:55.632Z,-3.37
2023-02-08T00:14:55.633Z,-3.40
2023-02-08T00:15:55.598Z,-3.41
2023-02-08T00:16:55.603Z,-3.44
2023-02-08T00:17:55.568Z,-3.44
2023-02-08T00:18:55.561Z,-3.46
2023-02-08T00:19:55.561Z,-3.48
2023-02-08T00:20:55.532Z,-3.49
2023-02-08T00:21:55.533Z,-3.51
2023-02-08T00:22:55.500Z,-3.54
2023-02-08T00:23:55.497Z,-3.54
2023-02-08T00:24:55.482Z,-3.55
2023-02-08T00:25:55.462Z,-3.56
2023-02-08T00:26:55.456Z,-3.58
2023-02-08T00:27:55.495Z,-3.59
2023-02-08T00:28:58.485Z,-3.64
2023-02-08T00:29:58.418Z,-3.66
2023-02-08T00:30:55.479Z,-3.67
2023-02-08T00:31:55.406Z,-3.67
2023-02-08T00:32:55.372Z,-3.70
2023-02-08T00:33:55.343Z,-3.75
2023-02-08T00:34:55.399Z,-3.75
2023-02-08T00:35:55.321Z,-3.74
2023-02-08T00:36:55.312Z,-3.77
2023-02-08T00:37:55.324Z,-3.74
2023-02-08T00:38:55.323Z,-3.67
2023-02-08T00:39:55.276Z,-3.61
2023-02-08T00:40:55.282Z,-3.55
2023-02-08T00:41:55.239Z,-3.52
2023-02-08T00:42:55.248Z,-3.49
2023-02-08T00:43:55.220Z,-3.51
2023-02-08T00:44:55.213Z,-3.51
2023-02-08T00:46:04.013Z,-3.51
2023-02-08T00:46:55.229Z,-3.51
2023-02-08T00:47:55.182Z,-3.51
2023-02-08T00:48:58.154Z,-3.51
2023-02-08T00:49:58.161Z,-3.46
2023-02-08T00:50:55.124Z,-3.49
2023-02-08T00:51:55.147Z,-3.49
2023-02-08T00:52:55.100Z,-3.52
2023-02-08T00:53:55.134Z,-3.54
2023-02-08T00:54:55.091Z,-3.54
2023-02-08T00:55:55.069Z,-3.55
2023-02-08T00:56:55.042Z,-3.58
2023-02-08T00:57:55.036Z,-3.59
2023-02-08T00:58:55.033Z,-3.63
2023-02-08T00:59:55.038Z,-3.67
2023-02-08T01:00:55.046Z,-3.75
2023-02-08T01:01:55.078Z,-3.77
2023-02-08T01:02:54.968Z,-3.77
2023-02-08T01:03:54.955Z,-3.78
2023-02-08T01:04:54.945Z,-3.80
2023-02-08T01:05:54.926Z,-3.82
2023-02-08T01:06:54.913Z,-3.82
2023-02-08T01:07:54.924Z,-3.83
2023-02-08T01:08:57.894Z,-3.82
2023-02-08T01:09:57.876Z,-3.82
2023-02-08T01:10:54.854Z,-3.83
2023-02-08T01:11:54.835Z,-3.85
2023-02-08T01:12:55.809Z,-3.85
2023-02-08T01:13:54.824Z,-3.83
2023-02-08T01:14:54.817Z,-3.83
2023-02-08T01:15:54.824Z,-3.83
2023-02-08T01:16:54.787Z,-3.83
2023-02-08T01:17:54.770Z,-3.83
2023-02-08T01:18:54.823Z,-3.83
2023-02-08T01:19:54.745Z,-3.86
2023-02-08T01:20:54.725Z,-3.88
2023-02-08T01:21:54.725Z,-3.91
2023-02-08T01:22:54.698Z,-3.86
2023-02-08T01:23:54.707Z,-3.86
2023-02-08T01:24:54.752Z,-3.86
2023-02-08T01:25:54.656Z,-3.85
2023-02-08T01:26:54.664Z,-3.82
2023-02-08T01:27:54.694Z,-3.78
2023-02-08T01:28:57.633Z,-3.75
2023-02-08T01:29:57.695Z,-3.72
2023-02-08T01:30:54.654Z,-3.74
2023-02-08T01:31:54.632Z,-3.74
2023-02-08T01:32:54.584Z,-3.74
2023-02-08T01:33:54.556Z,-3.78
2023-02-08T01:34:54.546Z,-3.80
2023-02-08T01:35:54.577Z,-3.85
2023-02-08T01:36:54.519Z,-3.88
2023-02-08T01:37:54.508Z,-3.93
2023-02-08T01:38:54.498Z,-3.99
2023-02-08T01:39:54.476Z,-4.02
2023-02-08T01:40:54.466Z,-4.02
2023-02-08T01:41:54.506Z,-4.02
2023-02-08T01:42:54.446Z,-4.04
2023-02-08T01:43:54.428Z,-4.04
2023-02-08T01:44:54.442Z,-4.06
2023-02-08T01:45:54.436Z,-4.04
2023-02-08T01:46:54.377Z,-4.04
2023-02-08T01:47:54.397Z,-4.03
2023-02-08T01:48:57.359Z,-4.02
2023-02-08T01:49:57.365Z,-3.98
2023-02-08T01:50:54.368Z,-3.98
2023-02-08T01:51:54.335Z,-3.96
2023-02-08T01:52:54.307Z,-3.98
2023-02-08T01:53:54.357Z,-3.98
2023-02-08T01:54:54.289Z,-3.98
2023-02-08T01:55:54.280Z,-3.98
2023-02-08T01:56:54.269Z,-3.99
2023-02-08T01:57:54.241Z,-3.98
2023-02-08T01:58:54.248Z,-3.98
2023-02-08T01:59:54.264Z,-3.95
2023-02-08T02:00:54.257Z,-3.96
2023-02-08T02:01:54.194Z,-3.93
2023-02-08T02:02:54.215Z,-3.95
2023-02-08T02:03:54.163Z,-3.93
2023-02-08T02:04:54.153Z,-3.96
2023-02-08T02:05:54.169Z,-3.98
2023-02-08T02:06:54.124Z,-3.96
2023-02-08T02:07:54.118Z,-3.96
2023-02-08T02:08:57.139Z,-3.99
2023-02-08T02:09:57.098Z,-4.02
2023-02-08T02:10:54.101Z,-4.02
2023-02-08T02:11:54.065Z,-4.02
2023-02-08T02:12:54.051Z,-4.02
2023-02-08T02:13:54.038Z,-4.03
2023-02-08T02:14:54.059Z,-4.03
2023-02-08T02:15:54.008Z,-4.04
2023-02-08T02:16:54.053Z,-4.07
2023-02-08T02:17:53.981Z,-4.09
2023-02-08T02:18:54.029Z,-4.09
2023-02-08T02:19:53.955Z,-4.10
2023-02-08T02:20:53.952Z,-4.12
2023-02-08T02:21:53.923Z,-4.12
2023-02-08T02:22:53.968Z,-4.12
2023-02-08T02:23:53.912Z,-4.10
2023-02-08T02:24:53.926Z,-4.09
2023-02-08T02:25:53.941Z,-4.09
2023-02-08T02:26:53.865Z,-4.10
2023-02-08T02:27:53.867Z,-4.12
2023-02-08T02:28:56.870Z,-4.14
2023-02-08T02:29:56.838Z,-4.14
2023-02-08T02:30:53.841Z,-4.17
2023-02-08T02:31:53.881Z,-4.17
2023-02-08T02:32:53.790Z,-4.20
2023-02-08T02:33:53.770Z,-4.21
2023-02-08T02:34:53.767Z,-4.22
2023-02-08T02:35:53.748Z,-4.24
2023-02-08T02:36:54.169Z,-4.25
2023-02-08T02:37:53.792Z,-4.27
2023-02-08T02:38:53.711Z,-4.27
2023-02-08T02:39:53.700Z,-4.30
2023-02-08T02:40:53.680Z,-4.30
2023-02-08T02:41:53.668Z,-4.32
2023-02-08T02:42:53.667Z,-4.35
2023-02-08T02:43:53.671Z,-4.38
2023-02-08T02:44:53.629Z,-4.39
2023-02-08T02:45:53.613Z,-4.38
2023-02-08T02:46:53.613Z,-4.41
2023-02-08T02:47:53.626Z,-4.43
2023-02-08T02:48:56.597Z,-4.43
2023-02-08T02:49:56.617Z,-4.43
2023-02-08T02:50:53.550Z,-4.43
2023-02-08T02:51:53.540Z,-4.45
2023-02-08T02:52:53.545Z,-4.45
2023-02-08T02:53:53.542Z,-4.46
2023-02-08T02:54:53.489Z,-4.48
2023-02-08T02:55:53.520Z,-4.45
2023-02-08T02:56:53.492Z,-4.48
2023-02-08T02:57:53.463Z,-4.46
2023-02-08T02:58:53.464Z,-4.46
2023-02-08T02:59:53.466Z,-4.48
2023-02-08T03:00:53.584Z,-4.48
2023-02-08T03:01:53.410Z,-4.50
2023-02-08T03:02:53.400Z,-4.50
2023-02-08T03:03:53.401Z,-4.53
2023-02-08T03:04:53.354Z,-4.55
2023-02-08T03:05:53.353Z,-4.55
2023-02-08T03:06:53.380Z,-4.57
2023-02-08T03:07:53.327Z,-4.57
2023-02-08T03:08:56.318Z,-4.60
2023-02-08T03:09:56.328Z,-4.59
2023-02-08T03:10:53.311Z,-4.59
2023-02-08T03:11:53.297Z,-4.60
2023-02-08T03:12:53.291Z,-4.59
2023-02-08T03:13:53.261Z,-4.59
2023-02-08T03:14:53.289Z,-4.59
2023-02-08T03:15:53.227Z,-4.57
2023-02-08T03:16:53.232Z,-4.57
2023-02-08T03:17:53.194Z,-4.57
2023-02-08T03:18:53.204Z,-4.57
2023-02-08T03:19:53.176Z,-4.55
2023-02-08T03:20:53.163Z,-4.53
2023-02-08T03:21:53.142Z,-4.55
2023-02-08T03:22:53.136Z,-4.55
2023-02-08T03:23:53.123Z,-4.55
2023-02-08T03:24:53.144Z,-4.57
2023-02-08T03:25:53.094Z,-4.55
2023-02-08T03:26:53.138Z,-4.59
2023-02-08T03:27:53.135Z,-4.53
2023-02-08T03:28:56.041Z,-4.55
2023-02-08T03:29:56.044Z,-4.53
2023-02-08T03:30:53.162Z,-4.55
2023-02-08T03:31:53.088Z,-4.52
2023-02-08T03:32:53.047Z,-4.46
2023-02-08T03:33:52.982Z,-4.42
2023-02-08T03:34:52.971Z,-4.38
2023-02-08T03:35:53.002Z,-4.38
2023-02-08T03:36:52.937Z,-4.34
2023-02-08T03:37:52.935Z,-4.31
2023-02-08T03:38:52.916Z,-4.32
2023-02-08T03:39:52.911Z,-4.32
2023-02-08T03:40:52.969Z,-4.34
2023-02-08T03:41:52.914Z,-4.35
2023-02-08T03:42:52.865Z,-4.38
2023-02-08T03:43:52.845Z,-4.39
2023-02-08T03:44:52.837Z,-4.39
2023-02-08T03:45:52.877Z,-4.35
2023-02-08T03:46:52.854Z,-4.34
2023-02-08T03:47:52.805Z,-4.31
2023-02-08T03:48:55.788Z,-4.31
2023-02-08T03:49:55.792Z,-4.31
2023-02-08T03:50:52.760Z,-4.31
2023-02-08T03:51:52.773Z,-4.34
2023-02-08T03:52:52.756Z,-4.34
2023-02-08T03:53:52.714Z,-4.35
2023-02-08T03:54:52.713Z,-4.34
2023-02-08T03:55:52.694Z,-4.34
2023-02-08T03:56:52.667Z,-4.31
2023-02-08T03:57:52.696Z,-4.34
2023-02-08T03:58:52.647Z,-4.32
2023-02-08T03:59:52.659Z,-4.38
2023-02-08T04:00:52.625Z,-4.35
2023-02-08T04:01:52.610Z,-4.35
2023-02-08T04:02:52.654Z,-4.38
2023-02-08T04:03:52.583Z,-4.34
2023-02-08T04:04:52.583Z,-4.31
2023-02-08T04:05:52.569Z,-4.31
2023-02-08T04:06:52.543Z,-4.30
2023-02-08T04:07:52.574Z,-4.28
2023-02-08T04:08:55.515Z,-4.27
2023-02-08T04:09:55.563Z,-4.21
2023-02-08T04:10:52.489Z,-4.16
2023-02-08T04:11:52.466Z,-4.13
2023-02-08T04:12:52.484Z,-4.10
2023-02-08T04:13:52.447Z,-4.09
2023-02-08T04:14:52.472Z,-4.09
2023-02-08T04:15:52.493Z,-4.07
2023-02-08T04:16:52.411Z,-4.03
2023-02-08T04:17:52.386Z,-4.04
2023-02-08T04:18:52.364Z,-4.02
2023-02-08T04:19:52.393Z,-4.02
2023-02-08T04:20:52.432Z,-4.07
2023-02-08T04:21:52.343Z,-4.10
2023-02-08T04:22:52.334Z,-4.12
2023-02-08T04:23:52.344Z,-4.16
2023-02-08T04:24:52.294Z,-4.17
2023-02-08T04:25:52.286Z,-4.21
2023-02-08T04:26:52.282Z,-4.22
2023-02-08T04:27:52.274Z,-4.24
2023-02-08T04:28:55.234Z,-4.25
2023-02-08T04:29:55.240Z,-4.28
2023-02-08T04:30:52.323Z,-4.32
2023-02-08T04:31:52.276Z,-4.35
2023-02-08T04:32:52.200Z,-4.41
2023-02-08T04:33:52.178Z,-4.42
2023-02-08T04:34:52.160Z,-4.43
2023-02-08T04:35:52.168Z,-4.48
2023-02-08T04:36:52.160Z,-4.49
2023-02-08T04:37:52.183Z,-4.50
2023-02-08T04:38:52.117Z,-4.52
2023-02-08T04:39:52.099Z,-4.50
2023-02-08T04:40:52.072Z,-4.52
2023-02-08T04:41:52.052Z,-4.49
2023-02-08T04:42:52.080Z,-4.50
2023-02-08T04:43:52.080Z,-4.50
2023-02-08T04:44:52.056Z,-4.53
2023-02-08T04:45:52.002Z,-4.57
2023-02-08T04:46:52.001Z,-4.57
2023-02-08T04:47:52.024Z,-4.60
2023-02-08T04:48:55.284Z,-4.60
2023-02-08T04:49:54.965Z,-4.61
2023-02-08T04:50:51.956Z,-4.64
2023-02-08T04:51:51.943Z,-4.66
2023-02-08T04:52:51.923Z,-4.69
2023-02-08T04:53:51.896Z,-4.70
2023-02-08T04:54:51.950Z,-4.70
2023-02-08T04:55:51.882Z,-4.70
2023-02-08T04:56:51.893Z,-4.73
2023-02-08T04:57:51.844Z,-4.77
2023-02-08T04:58:51.861Z,-4.77
2023-02-08T04:59:51.822Z,-4.78
2023-02-08T05:00:51.889Z,-4.79
2023-02-08T05:01:51.836Z,-4.81
2023-02-08T05:02:51.794Z,-4.79
2023-02-08T05:03:51.815Z,-4.82
2023-02-08T05:04:51.813Z,-4.84
2023-02-08T05:05:51.752Z,-4.85
2023-02-08T05:06:51.806Z,-4.88
2023-02-08T05:07:51.731Z,-4.89
2023-02-08T05:08:54.714Z,-4.91
2023-02-08T05:09:54.714Z,-4.92
2023-02-08T05:10:51.701Z,-4.92
2023-02-08T05:11:51.661Z,-4.95
2023-02-08T05:12:51.699Z,-4.96
2023-02-08T05:13:51.640Z,-4.92
2023-02-08T05:14:51.635Z,-4.89
2023-02-08T05:15:51.620Z,-4.89
2023-02-08T05:16:51.614Z,-4.91
2023-02-08T05:17:51.611Z,-4.92
2023-02-08T05:18:51.579Z,-4.96
2023-02-08T05:19:51.580Z,-4.96
2023-02-08T05:20:51.541Z,-4.98
2023-02-08T05:21:51.549Z,-5.00
2023-02-08T05:22:51.577Z,-5.05
2023-02-08T05:23:51.511Z,-5.03
2023-02-08T05:24:51.508Z,-5.03
2023-02-08T05:25:51.492Z,-5.05
2023-02-08T05:26:51.478Z,-5.05
2023-02-08T05:27:51.470Z,-5.02
2023-02-08T05:28:54.508Z,-5.03
2023-02-08T05:29:54.432Z,-5.03
2023-02-08T05:30:51.434Z,-5.05
2023-02-08T05:31:51.478Z,-5.06
2023-02-08T05:32:51.371Z,-5.08
2023-02-08T05:33:51.372Z,-5.09
2023-02-08T05:34:51.392Z,-5.10
2023-02-08T05:35:51.356Z,-5.14
2023-02-08T05:36:51.334Z,-5.14
2023-02-08T05:37:51.309Z,-5.13
2023-02-08T05:38:51.319Z,-5.14
2023-02-08T05:39:51.344Z,-5.14
2023-02-08T05:40:51.277Z,-5.17
2023-02-08T05:41:51.258Z,-5.18
2023-02-08T05:42:51.262Z,-5.18
2023-02-08T05:43:51.272Z,-5.19
2023-02-08T05:44:51.250Z,-5.14
2023-02-08T05:45:51.236Z,-5.10
2023-02-08T05:46:51.267Z,-5.09
2023-02-08T05:47:51.182Z,-5.08
2023-02-08T05:48:54.175Z,-5.02
2023-02-08T05:49:54.178Z,-4.96
2023-02-08T05:50:51.151Z,-4.92
2023-02-08T05:51:51.117Z,-4.91
2023-02-08T05:52:51.097Z,-4.88
2023-02-08T05:53:51.090Z,-4.88
2023-02-08T05:54:51.151Z,-4.87
2023-02-08T05:55:51.077Z,-4.89
2023-02-08T05:56:51.061Z,-4.89
2023-02-08T05:57:51.044Z,-4.92
2023-02-08T05:58:51.034Z,-4.92
2023-02-08T05:59:51.129Z,-4.99
2023-02-08T06:00:51.113Z,-5.00
2023-02-08T06:01:51.105Z,-5.02
2023-02-08T06:02:51.070Z,-5.05
2023-02-08T06:03:51.052Z,-5.06
2023-02-08T06:04:51.001Z,-5.13
2023-02-08T06:05:50.967Z,-5.14
2023-02-08T06:06:50.999Z,-5.17
2023-02-08T06:07:50.946Z,-5.17
2023-02-08T06:08:53.999Z,-5.13
2023-02-08T06:09:53.935Z,-5.13
2023-02-08T06:10:50.908Z,-5.09
2023-02-08T06:11:50.989Z,-5.10
2023-02-08T06:12:50.878Z,-5.10
2023-02-08T06:13:50.928Z,-5.10
2023-02-08T06:14:50.858Z,-5.13
2023-02-08T06:15:50.862Z,-5.13
2023-02-08T06:16:51.023Z,-5.08
2023-02-08T06:17:50.786Z,-5.05
2023-02-08T06:18:50.789Z,-5.05
2023-02-08T06:19:50.788Z,-4.99
2023-02-08T06:20:50.799Z,-4.98
2023-02-08T06:21:50.738Z,-4.96
2023-02-08T06:22:50.769Z,-4.92
2023-02-08T06:23:50.748Z,-4.95
2023-02-08T06:24:50.698Z,-4.95
2023-02-08T06:25:50.729Z,-4.96
2023-02-08T06:26:50.700Z,-4.96
2023-02-08T06:27:50.759Z,-4.98
2023-02-08T06:28:53.729Z,-5.00
2023-02-08T06:29:53.691Z,-5.00
2023-02-08T06:30:50.673Z,-5.03
2023-02-08T06:31:50.786Z,-5.05
2023-02-08T06:32:50.701Z,-5.08
2023-02-08T06:33:50.683Z,-5.13
2023-02-08T06:34:50.687Z,-5.13
2023-02-08T06:35:50.562Z,-5.21
2023-02-08T06:36:50.657Z,-5.21
2023-02-08T06:37:50.574Z,-5.25
2023-02-08T06:38:51.407Z,-5.25
2023-02-08T06:39:50.589Z,-5.25
2023-02-08T06:40:50.530Z,-5.27
2023-02-08T06:41:50.546Z,-5.28
2023-02-08T06:42:50.548Z,-5.31
2023-02-08T06:43:50.553Z,-5.29
2023-02-08T06:44:55.168Z,-5.33
2023-02-08T06:45:50.513Z,-5.28
2023-02-08T06:46:50.416Z,-5.28
2023-02-08T06:47:50.384Z,-5.28
2023-02-08T06:48:53.443Z,-5.28
2023-02-08T06:49:53.381Z,-5.28
2023-02-08T06:50:50.350Z,-5.25
2023-02-08T06:51:50.331Z,-5.28
2023-02-08T06:52:50.333Z,-5.25
2023-02-08T06:53:50.313Z,-5.27
2023-02-08T06:54:50.340Z,-5.25
2023-02-08T06:55:50.318Z,-5.22
2023-02-08T06:56:50.299Z,-5.21
2023-02-08T06:57:50.253Z,-5.19
2023-02-08T06:58:50.324Z,-5.18
2023-02-08T06:59:50.253Z,-5.10
2023-02-08T07:00:50.247Z,-5.06
2023-02-08T07:01:50.208Z,-4.99
2023-02-08T07:02:50.205Z,-4.87
2023-02-08T07:03:50.184Z,-4.81
2023-02-08T07:04:50.237Z,-4.75
2023-02-08T07:06:04.112Z,-4.71
2023-02-08T07:06:51.181Z,-4.71
2023-02-08T07:07:50.132Z,-4.69
2023-02-08T07:08:53.132Z,-4.71
2023-02-08T07:09:53.183Z,-4.71
2023-02-08T07:10:50.115Z,-4.73
2023-02-08T07:11:50.095Z,-4.77
2023-02-08T07:12:50.068Z,-4.78
2023-02-08T07:13:50.101Z,-4.79
2023-02-08T07:14:50.035Z,-4.81
2023-02-08T07:15:50.800Z,-4.81
2023-02-08T07:16:50.136Z,-4.79
2023-02-08T07:17:50.090Z,-4.78
2023-02-08T07:18:50.034Z,-4.81
2023-02-08T07:19:50.057Z,-4.81
2023-02-08T07:20:49.990Z,-4.78
2023-02-08T07:21:50.068Z,-4.78
2023-02-08T07:22:49.928Z,-4.75
2023-02-08T07:23:50.012Z,-4.75
2023-02-08T07:24:49.930Z,-4.75
2023-02-08T07:25:49.905Z,-4.75
2023-02-08T07:26:49.920Z,-4.71
2023-02-08T07:27:49.939Z,-4.73
2023-02-08T07:28:53.610Z,-4.71
2023-02-08T07:29:52.856Z,-4.70
2023-02-08T07:30:49.981Z,-4.71
2023-02-08T07:31:50.105Z,-4.71
2023-02-08T07:32:49.950Z,-4.70
2023-02-08T07:33:49.799Z,-4.71
2023-02-08T07:34:49.855Z,-4.71
2023-02-08T07:35:49.808Z,-4.71
2023-02-08T07:36:49.896Z,-4.70
2023-02-08T07:37:49.788Z,-4.70
2023-02-08T07:38:49.725Z,-4.69
2023-02-08T07:39:49.760Z,-4.67
2023-02-08T07:40:49.731Z,-4.64
2023-02-08T07:41:49.683Z,-4.61
2023-02-08T07:42:49.718Z,-4.63
2023-02-08T07:43:49.704Z,-4.64
2023-02-08T07:44:49.661Z,-4.63
2023-02-08T07:45:49.722Z,-4.63
2023-02-08T07:46:49.628Z,-4.63
2023-02-08T07:47:49.672Z,-4.60
2023-02-08T07:48:52.624Z,-4.61
2023-02-08T07:49:52.599Z,-4.61
2023-02-08T07:50:49.577Z,-4.63
2023-02-08T07:51:49.585Z,-4.55
2023-02-08T07:52:49.594Z,-4.55
2023-02-08T07:53:49.573Z,-4.50
2023-02-08T07:54:49.521Z,-4.46
2023-02-08T07:55:49.505Z,-4.42
2023-02-08T07:56:49.484Z,-4.39
2023-02-08T07:57:49.513Z,-4.28
2023-02-08T07:58:49.503Z,-4.21
2023-02-08T07:59:49.459Z,-4.13
2023-02-08T08:00:49.440Z,-4.06
2023-02-08T08:01:49.475Z,-3.99
2023-02-08T08:02:49.446Z,-3.95
2023-02-08T08:03:49.415Z,-3.91
2023-02-08T08:04:49.414Z,-3.88
2023-02-08T08:05:52.099Z,-3.83
2023-02-08T08:06:49.366Z,-3.80
2023-02-08T08:07:49.346Z,-3.75
2023-02-08T08:08:52.352Z,-3.70
2023-02-08T08:09:52.338Z,-3.69
2023-02-08T08:10:49.357Z,-3.64
2023-02-08T08:11:49.296Z,-3.61
2023-02-08T08:12:49.277Z,-3.55
2023-02-08T08:13:49.275Z,-3.51
2023-02-08T08:14:49.246Z,-3.48
2023-02-08T08:15:49.238Z,-3.44
2023-02-08T08:16:49.242Z,-3.38
2023-02-08T08:17:49.227Z,-3.35
2023-02-08T08:18:49.198Z,-3.33
2023-02-08T08:19:49.180Z,-3.31
2023-02-08T08:20:49.217Z,-3.31
2023-02-08T08:21:49.168Z,-3.30
2023-02-08T08:22:49.142Z,-3.30
2023-02-08T08:23:49.128Z,-3.27
2023-02-08T08:24:49.122Z,-3.25
2023-02-08T08:25:49.099Z,-3.20
2023-02-08T08:26:49.164Z,-3.19
2023-02-08T08:27:49.143Z,-3.16
2023-02-08T08:28:52.082Z,-3.13
2023-02-08T08:29:52.087Z,-3.13
2023-02-08T08:30:49.142Z,-3.13
2023-02-08T08:31:49.078Z,-3.12
2023-02-08T08:32:49.033Z,-3.13
2023-02-08T08:33:49.001Z,-3.10
2023-02-08T08:34:48.974Z,-3.10
2023-02-08T08:35:48.961Z,-3.09
2023-02-08T08:36:48.949Z,-3.06
2023-02-08T08:37:49.130Z,-3.06
2023-02-08T08:38:48.940Z,-3.02
2023-02-08T08:39:48.920Z,-3.01
2023-02-08T08:40:48.910Z,-3.01
2023-02-08T08:41:48.889Z,-2.99
2023-02-08T08:42:48.892Z,-2.97
2023-02-08T08:43:48.901Z,-2.97
2023-02-08T08:44:48.853Z,-2.92
2023-02-08T08:45:49.751Z,-2.91
2023-02-08T08:46:48.812Z,-2.84
2023-02-08T08:47:48.820Z,-2.83
2023-02-08T08:48:51.810Z,-2.83
2023-02-08T08:49:51.806Z,-2.78
2023-02-08T08:50:49.428Z,-2.76
2023-02-08T08:51:48.820Z,-2.70
2023-02-08T08:52:48.758Z,-2.66
2023-02-08T08:53:48.747Z,-2.66
2023-02-08T08:54:48.722Z,-2.63
2023-02-08T08:55:48.753Z,-2.59
2023-02-08T08:56:48.977Z,-2.58
2023-02-08T08:57:48.712Z,-2.52
2023-02-08T08:58:48.693Z,-2.47
2023-02-08T08:59:48.663Z,-2.44
2023-02-08T09:00:48.650Z,-2.42
2023-02-08T09:01:48.687Z,-2.40
2023-02-08T09:02:48.666Z,-2.37
2023-02-08T09:03:48.643Z,-2.34
2023-02-08T09:04:48.623Z,-2.30
2023-02-08T09:05:48.596Z,-2.26
2023-02-08T09:06:48.567Z,-2.26
2023-02-08T09:07:48.559Z,-2.21
2023-02-08T09:08:51.916Z,-2.18
2023-02-08T09:09:51.569Z,-2.16
2023-02-08T09:10:48.537Z,-2.13
2023-02-08T09:11:48.497Z,-2.13
2023-02-08T09:12:48.495Z,-2.08
2023-02-08T09:13:48.494Z,-2.02
2023-02-08T09:14:48.453Z,-2.01
2023-02-08T09:15:48.597Z,-1.95
2023-02-08T09:16:48.435Z,-1.94
2023-02-08T09:17:48.397Z,-1.90
2023-02-08T09:18:48.386Z,-1.92
2023-02-08T09:19:48.378Z,-1.89
2023-02-08T09:20:48.417Z,-1.89
2023-02-08T09:21:48.436Z,-1.86
2023-02-08T09:22:48.340Z,-1.84
2023-02-08T09:23:48.337Z,-1.83
2023-02-08T09:24:48.333Z,-1.82
2023-02-08T09:25:50.126Z,-1.80
2023-02-08T09:26:48.309Z,-1.76
2023-02-08T09:27:48.370Z,-1.76
2023-02-08T09:28:51.252Z,-1.76
2023-02-08T09:29:51.268Z,-1.68
2023-02-08T09:30:48.306Z,-1.64
2023-02-08T09:31:48.368Z,-1.58
2023-02-08T09:32:48.220Z,-1.54
2023-02-08T09:33:48.217Z,-1.53
2023-02-08T09:34:48.199Z,-1.50
2023-02-08T09:35:49.603Z,-1.46
2023-02-08T09:36:48.168Z,-1.41
2023-02-08T09:37:48.179Z,-1.38
2023-02-08T09:38:48.137Z,-1.35
2023-02-08T09:39:48.122Z,-1.30
2023-02-08T09:40:48.098Z,-1.30
2023-02-08T09:41:48.123Z,-1.25
2023-02-08T09:42:48.121Z,-1.23
2023-02-08T09:43:48.062Z,-1.22
2023-02-08T09:44:48.052Z,-1.19
2023-02-08T09:45:58.138Z,-1.17
2023-02-08T09:46:49.028Z,-1.17
2023-02-08T09:47:48.035Z,-1.14
2023-02-08T09:48:51.073Z,-1.09
2023-02-08T09:49:50.999Z,-1.05
2023-02-08T09:50:47.972Z,-1.02
2023-02-08T09:51:47.954Z,-0.99
2023-02-08T09:52:47.945Z,-0.94
2023-02-08T09:53:47.926Z,-0.93
2023-02-08T09:54:47.963Z,-0.90
2023-02-08T09:55:47.908Z,-0.86
2023-02-08T09:56:47.948Z,-0.86
2023-02-08T09:57:47.867Z,-0.82
2023-02-08T09:58:47.855Z,-0.80
2023-02-08T09:59:47.850Z,-0.77
2023-02-08T10:00:47.864Z,-0.77
2023-02-08T10:01:47.819Z,-0.74
2023-02-08T10:02:47.850Z,-0.72
2023-02-08T10:03:47.816Z,-0.71
2023-02-08T10:04:47.792Z,-0.68
2023-02-08T10:05:47.779Z,-0.67
2023-02-08T10:06:49.989Z,-0.61
2023-02-08T10:07:47.779Z,-0.53
2023-02-08T10:08:50.805Z,-0.49
2023-02-08T10:09:50.750Z,-0.41
2023-02-08T10:10:47.716Z,-0.36
2023-02-08T10:11:47.720Z,-0.34
2023-02-08T10:12:47.683Z,-0.31
2023-02-08T10:13:47.668Z,-0.31
2023-02-08T10:14:47.689Z,-0.28
2023-02-08T10:15:47.632Z,-0.25
2023-02-08T10:16:47.641Z,-0.21
2023-02-08T10:17:47.617Z,-0.17
2023-02-08T10:18:47.609Z,-0.14
2023-02-08T10:19:47.579Z,-0.11
2023-02-08T10:20:47.598Z,-0.08
2023-02-08T10:21:47.570Z,-0.03
2023-02-08T10:22:47.548Z,0.01
2023-02-08T10:23:47.530Z,0.03
2023-02-08T10:24:47.520Z,0.07
2023-02-08T10:25:47.512Z,0.10
2023-02-08T10:26:47.533Z,0.15
2023-02-08T10:27:47.503Z,0.18
2023-02-08T10:28:52.329Z,0.21
2023-02-08T10:29:50.501Z,0.22
2023-02-08T10:30:47.755Z,0.29
2023-02-08T10:31:47.465Z,0.39
2023-02-08T10:32:47.430Z,0.44
2023-02-08T10:33:47.419Z,0.49
2023-02-08T10:34:47.393Z,0.55
2023-02-08T10:35:47.388Z,0.58
2023-02-08T10:36:47.378Z,0.63
2023-02-08T10:37:47.381Z,0.66
2023-02-08T10:38:47.374Z,0.73
2023-02-08T10:39:47.321Z,0.76
2023-02-08T10:40:47.311Z,0.78
2023-02-08T10:41:47.288Z,0.81
2023-02-08T10:42:47.351Z,0.86
2023-02-08T10:43:47.268Z,0.91
2023-02-08T10:44:48.426Z,0.94
2023-02-08T10:45:47.297Z,0.96
2023-02-08T10:46:47.222Z,0.98
2023-02-08T10:47:47.222Z,1.04
2023-02-08T10:48:50.220Z,1.12
2023-02-08T10:49:50.272Z,1.14
2023-02-08T10:50:47.172Z,1.20
2023-02-08T10:51:47.275Z,1.26
2023-02-08T10:52:47.138Z,1.31
2023-02-08T10:53:47.170Z,1.35
2023-02-08T10:54:47.114Z,1.41
2023-02-08T10:55:47.106Z,1.45
2023-02-08T10:56:47.099Z,1.53
2023-02-08T10:57:47.099Z,1.55
2023-02-08T10:58:47.098Z,1.60
2023-02-08T10:59:47.084Z,1.66
2023-02-08T11:00:47.063Z,1.71
2023-02-08T11:01:47.036Z,1.74
2023-02-08T11:02:47.039Z,1.78
2023-02-08T11:03:47.036Z,1.84
2023-02-08T11:04:47.031Z,1.87
2023-02-08T11:05:46.992Z,1.92
2023-02-08T11:06:46.977Z,1.99
2023-02-08T11:07:47.222Z,2.00
2023-02-08T11:08:49.981Z,2.06
2023-02-08T11:09:50.173Z,2.10
2023-02-08T11:10:47.150Z,2.13
2023-02-08T11:11:46.942Z,2.14
2023-02-08T11:12:47.031Z,2.18
2023-02-08T11:13:46.881Z,2.25
2023-02-08T11:14:47.610Z,2.31
2023-02-08T11:15:46.970Z,2.35
2023-02-08T11:16:46.838Z,2.36
2023-02-08T11:17:46.825Z,2.39
2023-02-08T11:18:46.819Z,2.43
2023-02-08T11:19:46.812Z,2.46
2023-02-08T11:20:46.911Z,2.50
2023-02-08T11:21:46.814Z,2.53
2023-02-08T11:22:46.746Z,2.60
2023-02-08T11:23:46.717Z,2.62
2023-02-08T11:24:46.703Z,2.68
2023-02-08T11:25:46.884Z,2.71
2023-02-08T11:26:46.723Z,2.74
2023-02-08T11:27:46.841Z,2.80
2023-02-08T11:28:49.655Z,2.82
2023-02-08T11:29:49.706Z,2.83
2023-02-08T11:30:46.695Z,2.90
2023-02-08T11:31:46.690Z,2.93
2023-02-08T11:32:46.605Z,2.93
2023-02-08T11:33:46.584Z,2.98
2023-02-08T11:34:46.573Z,3.03
2023-02-08T11:35:46.568Z,3.07
2023-02-08T11:36:46.577Z,3.10
2023-02-08T11:37:46.539Z,3.10
2023-02-08T11:38:46.520Z,3.11
2023-02-08T11:39:46.508Z,3.14
2023-02-08T11:40:46.529Z,3.19
2023-02-08T11:41:46.508Z,3.23
2023-02-08T11:42:46.469Z,3.25
2023-02-08T11:43:46.494Z,3.29
2023-02-08T11:44:46.442Z,3.34
2023-02-08T11:45:46.466Z,3.37
2023-02-08T11:46:46.510Z,3.42
2023-02-08T11:47:46.401Z,3.42
2023-02-08T11:48:49.398Z,3.45
2023-02-08T11:49:49.401Z,3.48
2023-02-08T11:50:46.357Z,3.51
2023-02-08T11:51:46.705Z,3.51
2023-02-08T11:52:46.337Z,3.51
2023-02-08T11:53:46.311Z,3.58
2023-02-08T11:54:46.301Z,3.60
2023-02-08T11:55:46.295Z,3.66
2023-02-08T11:56:46.319Z,3.69
2023-02-08T11:57:46.261Z,3.70
2023-02-08T11:58:46.252Z,3.77
2023-02-08T11:59:46.240Z,3.80
2023-02-08T12:00:46.221Z,3.84
2023-02-08T12:01:46.214Z,3.87
2023-02-08T12:02:46.291Z,3.91
2023-02-08T12:03:46.282Z,3.92
2023-02-08T12:04:46.169Z,3.92
2023-02-08T12:05:46.162Z,3.91
2023-02-08T12:06:46.148Z,3.94
2023-02-08T12:07:46.128Z,3.99
2023-02-08T12:08:49.127Z,3.98
2023-02-08T12:09:49.111Z,4.02
2023-02-08T12:10:46.085Z,4.05
2023-02-08T12:11:46.088Z,4.08
2023-02-08T12:12:46.076Z,4.10
2023-02-08T12:13:46.046Z,4.10
2023-02-08T12:14:46.058Z,4.13
2023-02-08T12:15:57.852Z,4.14
2023-02-08T12:16:47.013Z,4.16
2023-02-08T12:17:45.997Z,4.19
2023-02-08T12:18:46.025Z,4.22
2023-02-08T12:19:45.995Z,4.26
2023-02-08T12:20:45.950Z,4.30
2023-02-08T12:21:45.936Z,4.30
2023-02-08T12:22:45.931Z,4.32
2023-02-08T12:23:45.914Z,4.32
2023-02-08T12:24:45.916Z,4.34
2023-02-08T12:25:45.887Z,4.35
2023-02-08T12:26:45.867Z,4.38
2023-02-08T12:27:45.860Z,4.42
2023-02-08T12:28:48.839Z,4.49
2023-02-08T12:29:48.868Z,4.53
2023-02-08T12:30:45.979Z,4.55
2023-02-08T12:31:45.871Z,4.58
2023-02-08T12:32:45.776Z,4.58
2023-02-08T12:33:45.800Z,4.62
2023-02-08T12:34:45.756Z,4.66
2023-02-08T12:36:01.531Z,4.66
2023-02-08T12:36:46.759Z,4.68
2023-02-08T12:37:45.760Z,4.68
2023-02-08T12:38:45.705Z,4.70
2023-02-08T12:39:45.675Z,4.73
2023-02-08T12:40:45.717Z,4.74
2023-02-08T12:41:45.657Z,4.77
2023-02-08T12:42:45.646Z,4.82
2023-02-08T12:43:45.658Z,4.87
2023-02-08T12:44:45.616Z,4.89
2023-02-08T12:45:45.616Z,4.89
2023-02-08T12:46:45.615Z,4.90
2023-02-08T12:47:58.261Z,4.90
2023-02-08T12:48:49.565Z,4.92
2023-02-08T12:49:48.565Z,4.94
2023-02-08T12:50:45.543Z,4.94
2023-02-08T12:51:45.576Z,4.99
2023-02-08T12:52:45.518Z,4.97
2023-02-08T12:53:45.508Z,5.02
2023-02-08T12:54:45.478Z,5.05
2023-02-08T12:55:45.599Z,5.08
2023-02-08T12:56:50.925Z,5.12
2023-02-08T12:57:46.438Z,5.17